createdAt,value
2022-08-17T00:00:10.249Z,15.60
2022-08-17T00:03:22.846Z,14.70
2022-08-17T00:05:57.349Z,12.30
2022-08-17T00:08:27.911Z,12.90
2022-08-17T00:10:55.989Z,12.80
2022-08-17T00:13:27.814Z,14.20
2022-08-17T00:16:10.055Z,14.10
2022-08-17T00:19:01.432Z,14.50
2022-08-17T00:21:25.185Z,16.10
2022-08-17T00:23:53.738Z,13.20
2022-08-17T00:26:45.239Z,15.40
2022-08-17T00:29:10.742Z,13.00
2022-08-17T00:31:47.327Z,13.90
2022-08-17T00:34:14.889Z,14.30
2022-08-17T00:36:42.249Z,12.90
2022-08-17T00:39:09.610Z,14.00
2022-08-17T00:41:37.717Z,13.10
2022-08-17T00:44:10.249Z,13.70
2022-08-17T00:46:41.343Z,14.30
2022-08-17T00:49:10.067Z,14.50
2022-08-17T00:51:53.110Z,15.70
2022-08-17T00:54:41.830Z,16.40
2022-08-17T00:57:15.868Z,13.70
2022-08-17T01:00:02.691Z,14.80
2022-08-17T01:02:41.183Z,13.90
2022-08-17T01:05:22.670Z,13.70
2022-08-17T01:07:51.218Z,15.00
2022-08-17T01:10:59.223Z,14.00
2022-08-17T01:13:11.652Z,15.20
2022-08-17T01:15:42.209Z,13.90
2022-08-17T01:18:14.970Z,15.90
2022-08-17T01:20:48.638Z,14.80
2022-08-17T01:23:20.928Z,13.60
2022-08-17T01:25:57.388Z,15.00
2022-08-17T01:28:33.508Z,15.10
2022-08-17T01:31:15.261Z,15.70
2022-08-17T01:33:42.628Z,15.50
2022-08-17T01:36:10.785Z,17.50
2022-08-17T01:38:39.291Z,16.20
2022-08-17T01:41:12.095Z,17.80
2022-08-17T01:43:46.691Z,17.30
2022-08-17T01:46:22.668Z,17.50
2022-08-17T01:48:51.579Z,19.00
2022-08-17T01:51:20.310Z,18.30
2022-08-17T01:53:53.810Z,17.40
2022-08-17T01:56:23.583Z,16.90
2022-08-17T01:58:51.309Z,18.20
2022-08-17T02:01:21.462Z,17.90
2022-08-17T02:03:53.350Z,18.60
2022-08-17T02:06:45.034Z,17.80
2022-08-17T02:09:23.219Z,19.70
2022-08-17T02:11:52.828Z,18.50
2022-08-17T02:14:22.501Z,20.20
2022-08-17T02:16:50.090Z,18.30
2022-08-17T02:19:18.684Z,19.30
2022-08-17T02:21:49.929Z,17.20
2022-08-17T02:25:00.858Z,19.70
2022-08-17T02:27:10.218Z,15.30
2022-08-17T02:29:37.806Z,18.60
2022-08-17T02:32:05.861Z,15.20
2022-08-17T02:34:33.120Z,16.10
2022-08-17T02:37:00.348Z,17.50
2022-08-17T02:39:27.764Z,16.50
2022-08-17T02:42:02.257Z,17.10
2022-08-17T02:44:39.075Z,18.90
2022-08-17T02:47:09.249Z,19.40
2022-08-17T02:49:37.497Z,15.70
2022-08-17T02:52:07.015Z,15.90
2022-08-17T02:54:40.183Z,17.40
2022-08-17T02:57:10.252Z,16.00
2022-08-17T02:59:39.429Z,17.00
2022-08-17T03:02:08.522Z,15.80
2022-08-17T03:04:36.477Z,17.10
2022-08-17T03:07:05.232Z,17.40
2022-08-17T03:09:32.729Z,17.40
2022-08-17T03:12:13.156Z,17.10
2022-08-17T03:14:41.912Z,17.10
2022-08-17T03:17:10.961Z,15.70
2022-08-17T03:19:43.355Z,15.30
2022-08-17T03:22:36.085Z,15.90
2022-08-17T03:24:59.043Z,15.70
2022-08-17T03:27:26.913Z,15.60
2022-08-17T03:29:54.989Z,17.00
2022-08-17T03:32:22.325Z,17.80
2022-08-17T03:34:49.481Z,16.80
2022-08-17T03:37:16.935Z,14.10
2022-08-17T03:39:44.107Z,15.70
2022-08-17T03:42:31.485Z,16.90
2022-08-17T03:45:01.150Z,16.20
2022-08-17T03:47:47.727Z,18.10
2022-08-17T03:50:35.169Z,16.40
2022-08-17T03:53:25.763Z,16.70
2022-08-17T03:56:11.949Z,18.10
2022-08-17T03:58:39.309Z,15.00
2022-08-17T04:01:07.421Z,15.60
2022-08-17T04:03:34.919Z,14.90
2022-08-17T04:06:02.670Z,16.20
2022-08-17T04:08:30.988Z,15.80
2022-08-17T04:11:00.488Z,17.90
2022-08-17T04:13:28.048Z,19.20
2022-08-17T04:15:55.408Z,15.40
2022-08-17T04:18:22.868Z,17.80
2022-08-17T04:20:50.303Z,15.80
2022-08-17T04:23:19.297Z,15.70
2022-08-17T04:25:49.621Z,14.00
2022-08-17T04:28:18.082Z,16.00
2022-08-17T04:30:47.409Z,16.30
2022-08-17T04:33:21.049Z,14.70
2022-08-17T04:35:50.395Z,14.10
2022-08-17T04:38:21.248Z,14.50
2022-08-17T04:41:07.652Z,14.20
2022-08-17T04:43:36.850Z,15.90
2022-08-17T04:46:10.643Z,14.70
2022-08-17T04:48:41.718Z,17.60
2022-08-17T04:51:28.831Z,16.30
2022-08-17T04:54:02.454Z,17.90
2022-08-17T04:56:31.309Z,14.80
2022-08-17T04:59:01.763Z,15.20
2022-08-17T05:01:31.573Z,14.70
2022-08-17T05:04:33.099Z,15.00
2022-08-17T05:06:51.728Z,16.00
2022-08-17T05:09:19.310Z,16.90
2022-08-17T05:11:47.526Z,13.10
2022-08-17T05:14:15.350Z,14.20
2022-08-17T05:16:42.709Z,13.70
2022-08-17T05:19:10.252Z,15.40
2022-08-17T05:21:38.745Z,16.50
2022-08-17T05:24:38.671Z,13.80
2022-08-17T05:26:54.158Z,13.30
2022-08-17T05:29:22.729Z,15.20
2022-08-17T05:32:38.059Z,12.80
2022-08-17T05:35:01.161Z,14.00
2022-08-17T05:37:28.509Z,15.80
2022-08-17T05:39:56.080Z,16.00
2022-08-17T05:42:24.433Z,14.50
2022-08-17T05:44:52.929Z,14.40
2022-08-17T05:47:21.730Z,14.00
2022-08-17T05:49:49.333Z,15.40
2022-08-17T05:52:41.930Z,15.00
2022-08-17T05:55:32.528Z,14.30
2022-08-17T05:58:41.021Z,14.60
2022-08-17T06:01:27.166Z,14.10
2022-08-17T06:04:35.339Z,14.40
2022-08-17T06:07:13.049Z,13.70
2022-08-17T06:09:54.930Z,13.70
2022-08-17T06:12:41.760Z,12.00
2022-08-17T06:15:38.082Z,13.00
2022-08-17T06:18:08.915Z,13.00
2022-08-17T06:20:48.661Z,12.90
2022-08-17T06:23:35.882Z,12.80
2022-08-17T06:26:09.277Z,13.40
2022-08-17T06:28:44.500Z,14.70
2022-08-17T06:31:20.351Z,11.70
2022-08-17T06:33:48.711Z,10.90
2022-08-17T06:36:50.129Z,12.60
2022-08-17T06:39:29.512Z,11.00
2022-08-17T06:42:55.018Z,11.50
2022-08-17T06:45:14.113Z,11.90
2022-08-17T06:47:56.051Z,11.90
2022-08-17T06:50:37.278Z,11.10
2022-08-17T06:53:18.510Z,10.90
2022-08-17T06:55:51.797Z,11.10
2022-08-17T06:58:22.598Z,10.50
2022-08-17T07:00:56.615Z,11.00
2022-08-17T07:03:28.780Z,13.40
2022-08-17T07:06:00.503Z,13.10
2022-08-17T07:09:17.036Z,11.00
2022-08-17T07:11:50.850Z,11.50
2022-08-17T07:14:52.196Z,11.90
2022-08-17T07:17:46.497Z,13.50
2022-08-17T07:20:15.464Z,11.20
2022-08-17T07:22:57.703Z,13.60
2022-08-17T07:25:30.895Z,10.30
2022-08-17T07:28:01.259Z,11.00
2022-08-17T07:30:45.557Z,10.70
2022-08-17T07:33:23.257Z,12.60
2022-08-17T07:35:51.217Z,13.20
2022-08-17T07:38:25.349Z,12.60
2022-08-17T07:41:03.359Z,11.80
2022-08-17T07:43:39.752Z,11.00
2022-08-17T07:46:37.997Z,11.90
2022-08-17T07:49:08.506Z,11.30
2022-08-17T07:51:46.310Z,11.40
2022-08-17T07:54:17.071Z,10.70
2022-08-17T07:56:50.570Z,11.40
2022-08-17T07:59:23.551Z,11.10
2022-08-17T08:01:58.289Z,10.50
2022-08-17T08:04:49.948Z,11.70
2022-08-17T08:07:20.748Z,12.60
2022-08-17T08:10:01.692Z,10.10
2022-08-17T08:12:42.424Z,11.30
2022-08-17T08:15:22.838Z,13.00
2022-08-17T08:17:56.407Z,11.90
2022-08-17T08:20:52.412Z,11.10
2022-08-17T08:23:46.005Z,11.50
2022-08-17T08:26:38.189Z,11.00
2022-08-17T08:29:28.960Z,11.80
2022-08-17T08:32:18.755Z,10.40
2022-08-17T08:35:02.920Z,12.00
2022-08-17T08:37:50.431Z,12.10
2022-08-17T08:40:43.706Z,10.70
2022-08-17T08:43:23.047Z,12.60
2022-08-17T08:46:13.293Z,11.10
2022-08-17T08:48:56.329Z,10.20
2022-08-17T08:51:56.417Z,10.80
2022-08-17T08:54:44.683Z,10.50
2022-08-17T08:57:33.795Z,11.00
2022-08-17T09:00:23.623Z,10.40
2022-08-17T09:03:06.711Z,9.80
2022-08-17T09:05:42.596Z,10.20
2022-08-17T09:08:24.846Z,10.40
2022-08-17T09:11:15.259Z,9.20
2022-08-17T09:13:54.128Z,10.10
2022-08-17T09:16:43.501Z,11.40
2022-08-17T09:19:30.884Z,8.80
2022-08-17T09:22:33.606Z,9.90
2022-08-17T09:25:10.802Z,12.30
2022-08-17T09:27:57.754Z,10.10
2022-08-17T09:30:36.619Z,9.90
2022-08-17T09:33:08.141Z,10.20
2022-08-17T09:35:44.778Z,11.40
2022-08-17T09:38:28.092Z,10.50
2022-08-17T09:41:49.142Z,13.30
2022-08-17T09:44:22.928Z,12.10
2022-08-17T09:47:11.396Z,11.20
2022-08-17T09:50:02.299Z,11.10
2022-08-17T09:52:31.166Z,12.20
2022-08-17T09:54:59.830Z,12.30
2022-08-17T09:57:32.937Z,10.10
2022-08-17T10:00:00.192Z,11.20
2022-08-17T10:02:41.193Z,10.70
2022-08-17T10:05:22.059Z,12.10
2022-08-17T10:08:08.982Z,10.00
2022-08-17T10:10:52.474Z,10.90
2022-08-17T10:13:45.952Z,9.80
2022-08-17T10:16:31.620Z,9.50
2022-08-17T10:19:30.265Z,9.80
2022-08-17T10:22:34.508Z,10.30
2022-08-17T10:25:27.915Z,10.70
2022-08-17T10:28:19.706Z,9.40
2022-08-17T10:31:05.254Z,11.40
2022-08-17T10:33:58.084Z,9.20
2022-08-17T10:36:40.813Z,9.90
2022-08-17T10:39:08.939Z,10.40
2022-08-17T10:41:47.975Z,10.30
2022-08-17T10:44:51.169Z,10.30
2022-08-17T10:47:19.816Z,10.50
2022-08-17T10:49:54.232Z,10.10
2022-08-17T10:52:26.839Z,10.10
2022-08-17T10:54:59.545Z,11.00
2022-08-17T10:57:32.956Z,9.30
2022-08-17T11:00:16.397Z,9.10
2022-08-17T11:02:55.009Z,9.60
2022-08-17T11:05:43.734Z,9.80
2022-08-17T11:08:34.224Z,9.90
2022-08-17T11:11:24.292Z,10.20
2022-08-17T11:14:14.822Z,11.10
2022-08-17T11:16:59.106Z,10.30
2022-08-17T11:19:54.472Z,10.60
2022-08-17T11:22:33.486Z,9.30
2022-08-17T11:25:21.555Z,9.10
2022-08-17T11:27:53.982Z,10.10
2022-08-17T11:31:00.321Z,9.20
2022-08-17T11:33:30.532Z,9.90
2022-08-17T11:36:23.553Z,10.50
2022-08-17T11:39:07.163Z,10.70
2022-08-17T11:42:01.290Z,10.50
2022-08-17T11:44:55.432Z,8.80
2022-08-17T11:48:25.917Z,10.10
2022-08-17T11:51:16.942Z,9.30
2022-08-17T11:53:45.244Z,10.10
2022-08-17T11:56:32.164Z,8.30
2022-08-17T11:59:01.305Z,9.20
2022-08-17T12:01:32.022Z,9.30
2022-08-17T12:04:20.109Z,9.00
2022-08-17T12:06:51.199Z,10.70
2022-08-17T12:09:20.553Z,10.70
2022-08-17T12:12:11.161Z,9.70
2022-08-17T12:15:09.051Z,9.50
2022-08-17T12:17:50.652Z,8.90
2022-08-17T12:20:28.217Z,9.80
2022-08-17T12:23:09.706Z,9.60
2022-08-17T12:25:57.149Z,10.70
2022-08-17T12:28:30.336Z,10.10
2022-08-17T12:31:07.424Z,9.70
2022-08-17T12:33:37.003Z,10.10
2022-08-17T12:36:07.901Z,10.60
2022-08-17T12:38:36.974Z,10.70
2022-08-17T12:41:26.661Z,10.10
2022-08-17T12:44:05.682Z,8.60
2022-08-17T12:46:45.629Z,9.80
2022-08-17T12:49:21.343Z,9.70
2022-08-17T12:51:49.329Z,9.20
2022-08-17T12:54:27.860Z,10.10
2022-08-17T12:56:56.043Z,9.80
2022-08-17T12:59:30.252Z,8.00
2022-08-17T13:01:58.185Z,9.90
2022-08-17T13:04:26.490Z,10.40
2022-08-17T13:06:59.790Z,9.60
2022-08-17T13:09:35.743Z,10.80
2022-08-17T13:12:07.670Z,9.90
2022-08-17T13:14:35.723Z,9.60
2022-08-17T13:17:09.849Z,8.80
2022-08-17T13:19:48.752Z,9.70
2022-08-17T13:22:15.927Z,9.00
2022-08-17T13:24:57.489Z,9.70
2022-08-17T13:27:26.970Z,9.80
2022-08-17T13:29:58.449Z,11.10
2022-08-17T13:32:33.481Z,9.50
2022-08-17T13:35:15.598Z,9.00
2022-08-17T13:37:58.469Z,8.00
2022-08-17T13:40:32.585Z,11.50
2022-08-17T13:42:59.787Z,11.30
2022-08-17T13:45:36.637Z,9.10
2022-08-17T13:48:26.197Z,8.90
2022-08-17T13:50:59.970Z,11.20
2022-08-17T13:53:51.571Z,9.90
2022-08-17T13:56:38.785Z,9.80
2022-08-17T13:59:17.187Z,9.80
2022-08-17T14:02:05.274Z,9.60
2022-08-17T14:04:33.575Z,8.80
2022-08-17T14:07:13.247Z,9.10
2022-08-17T14:09:46.361Z,12.40
2022-08-17T14:12:17.586Z,10.50
2022-08-17T14:14:45.530Z,9.60
2022-08-17T14:17:13.105Z,10.00
2022-08-17T14:19:40.365Z,10.60
2022-08-17T14:22:09.367Z,8.70
2022-08-17T14:24:44.659Z,9.90
2022-08-17T14:27:12.512Z,9.50
2022-08-17T14:29:41.739Z,9.20
2022-08-17T14:32:22.509Z,9.70
2022-08-17T14:34:50.274Z,10.50
2022-08-17T14:37:18.931Z,9.80
2022-08-17T14:39:46.407Z,10.20
2022-08-17T14:42:15.505Z,11.30
2022-08-17T14:44:42.734Z,9.10
2022-08-17T14:47:15.379Z,9.00
2022-08-17T14:49:42.675Z,10.30
2022-08-17T14:52:11.378Z,10.40
2022-08-17T14:54:42.507Z,7.80
2022-08-17T14:57:25.859Z,8.70
2022-08-17T15:00:00.798Z,9.80
2022-08-17T15:02:30.387Z,9.20
2022-08-17T15:05:03.226Z,8.60
2022-08-17T15:07:31.279Z,10.10
2022-08-17T15:10:01.736Z,8.50
2022-08-17T15:12:33.720Z,9.30
2022-08-17T15:15:05.731Z,8.80
2022-08-17T15:17:44.862Z,8.90
2022-08-17T15:20:23.242Z,8.90
2022-08-17T15:22:51.645Z,8.40
2022-08-17T15:25:19.429Z,9.20
2022-08-17T15:27:47.815Z,9.50
2022-08-17T15:30:16.036Z,10.60
2022-08-17T15:32:51.060Z,9.90
2022-08-17T15:35:28.273Z,9.80
2022-08-17T15:38:11.716Z,10.10
2022-08-17T15:40:47.960Z,8.80
2022-08-17T15:43:27.350Z,7.40
2022-08-17T15:46:03.713Z,9.60
2022-08-17T15:48:44.910Z,8.80
2022-08-17T15:51:33.170Z,9.40
2022-08-17T15:54:04.414Z,10.80
2022-08-17T15:56:45.310Z,8.70
2022-08-17T15:59:13.047Z,9.20
2022-08-17T16:03:14.446Z,9.20
2022-08-17T16:04:30.881Z,10.10
2022-08-17T16:07:00.557Z,9.50
2022-08-17T16:09:28.390Z,9.30
2022-08-17T16:11:56.312Z,8.60
2022-08-17T16:14:32.367Z,9.50
2022-08-17T16:17:01.633Z,12.30
2022-08-17T16:19:29.177Z,11.00
2022-08-17T16:21:56.953Z,8.70
2022-08-17T16:24:25.064Z,9.20
2022-08-17T16:26:52.348Z,10.90
2022-08-17T16:29:19.563Z,8.80
2022-08-17T16:31:46.848Z,9.30
2022-08-17T16:34:17.093Z,9.00
2022-08-17T16:36:55.663Z,10.40
2022-08-17T16:39:26.020Z,9.20
2022-08-17T16:41:53.719Z,8.50
2022-08-17T16:44:22.123Z,8.10
2022-08-17T16:46:49.532Z,9.10
2022-08-17T16:49:36.293Z,9.00
2022-08-17T16:52:07.573Z,8.50
2022-08-17T16:54:36.055Z,12.50
2022-08-17T16:57:05.696Z,9.50
2022-08-17T16:59:40.701Z,9.10
2022-08-17T17:02:12.855Z,8.90
2022-08-17T17:05:20.990Z,9.70
2022-08-17T17:08:14.776Z,8.80
2022-08-17T17:10:56.077Z,9.70
2022-08-17T17:13:41.271Z,8.40
2022-08-17T17:16:45.674Z,9.40
2022-08-17T17:19:34.638Z,10.80
2022-08-17T17:22:08.009Z,8.60
2022-08-17T17:24:50.066Z,9.80
2022-08-17T17:27:37.843Z,9.70
2022-08-17T17:30:12.318Z,9.50
2022-08-17T17:32:47.074Z,9.40
2022-08-17T17:35:25.702Z,11.30
2022-08-17T17:37:53.764Z,12.10
2022-08-17T17:40:29.587Z,11.50
2022-08-17T17:43:14.164Z,8.50
2022-08-17T17:45:53.634Z,10.60
2022-08-17T17:48:21.389Z,9.80
2022-08-17T17:52:03.695Z,11.60
2022-08-17T17:54:46.117Z,12.50
2022-08-17T17:57:45.502Z,17.40
2022-08-17T18:00:13.159Z,19.80
2022-08-17T18:02:52.000Z,12.20
2022-08-17T18:06:00.569Z,14.00
2022-08-17T18:08:49.965Z,12.50
2022-08-17T18:11:53.486Z,10.40
2022-08-17T18:14:42.348Z,10.80
2022-08-17T18:17:09.897Z,11.60
2022-08-17T18:19:40.543Z,9.70
2022-08-17T18:22:14.026Z,11.20
2022-08-17T18:24:48.773Z,11.30
2022-08-17T18:27:30.155Z,44.70
2022-08-17T18:29:59.393Z,103.90
2022-08-17T18:32:33.585Z,67.20
2022-08-17T18:35:03.083Z,33.30
2022-08-17T18:37:43.248Z,21.50
2022-08-17T18:40:16.940Z,14.00
2022-08-17T18:42:46.961Z,14.70
2022-08-17T18:45:34.265Z,13.40
2022-08-17T18:48:02.352Z,12.00
2022-08-17T18:50:41.691Z,15.30
2022-08-17T18:53:21.013Z,16.50
2022-08-17T18:56:40.163Z,16.00
2022-08-17T18:59:17.545Z,14.50
2022-08-17T19:01:59.191Z,20.20
2022-08-17T19:04:30.486Z,16.10
2022-08-17T19:07:25.422Z,15.40
2022-08-17T19:10:11.595Z,16.30
2022-08-17T19:12:46.844Z,16.60
2022-08-17T19:15:16.873Z,18.30
2022-08-17T19:17:47.121Z,16.50
2022-08-17T19:20:31.527Z,15.50
2022-08-17T19:23:10.239Z,12.00
2022-08-17T19:25:50.702Z,12.10
2022-08-17T19:28:28.505Z,11.40
2022-08-17T19:30:58.577Z,11.90
2022-08-17T19:33:26.554Z,11.40
2022-08-17T19:36:27.441Z,13.40
2022-08-17T19:39:10.554Z,14.50
2022-08-17T19:41:48.673Z,15.10
2022-08-17T19:44:28.305Z,15.20
2022-08-17T19:47:53.883Z,18.30
2022-08-17T19:50:54.183Z,16.10
2022-08-17T19:54:04.517Z,16.70
2022-08-17T19:56:43.530Z,23.50
2022-08-17T19:59:49.917Z,16.50
2022-08-17T20:02:21.198Z,15.40
2022-08-17T20:04:50.609Z,15.90
2022-08-17T20:07:27.686Z,15.50
2022-08-17T20:10:32.066Z,17.30
2022-08-17T20:13:04.840Z,14.70
2022-08-17T20:15:36.413Z,14.70
2022-08-17T20:18:10.101Z,15.00
2022-08-17T20:21:00.237Z,13.90
2022-08-17T20:24:06.621Z,12.30
2022-08-17T20:26:55.366Z,12.00
2022-08-17T20:30:05.459Z,11.60
2022-08-17T20:32:38.258Z,13.50
2022-08-17T20:35:19.455Z,12.60
2022-08-17T20:38:05.327Z,12.00
2022-08-17T20:40:41.487Z,14.10
2022-08-17T20:43:30.375Z,14.20
2022-08-17T20:46:11.345Z,13.50
2022-08-17T20:48:43.088Z,13.30
2022-08-17T20:51:29.259Z,13.40
2022-08-17T20:54:01.345Z,12.50
2022-08-17T20:56:44.064Z,13.50
2022-08-17T20:59:27.897Z,12.10
2022-08-17T21:02:19.097Z,12.80
2022-08-17T21:04:54.963Z,13.10
2022-08-17T21:07:43.475Z,13.20
2022-08-17T21:10:26.544Z,13.00
2022-08-17T21:13:25.964Z,14.60
2022-08-17T21:16:01.404Z,14.90
2022-08-17T21:19:07.538Z,13.70
2022-08-17T21:21:58.764Z,14.10
2022-08-17T21:24:35.284Z,13.20
2022-08-17T21:27:24.205Z,14.70
2022-08-17T21:30:16.323Z,16.70
2022-08-17T21:32:45.957Z,15.30
2022-08-17T21:35:20.383Z,14.40
2022-08-17T21:37:49.327Z,13.60
2022-08-17T21:40:19.308Z,15.60
2022-08-17T21:42:51.787Z,16.60
2022-08-17T21:45:29.916Z,12.90
2022-08-17T21:48:16.134Z,14.10
2022-08-17T21:51:12.434Z,13.50
2022-08-17T21:53:49.343Z,15.40
2022-08-17T21:56:47.017Z,14.90
2022-08-17T21:59:36.911Z,15.10
2022-08-17T22:02:08.183Z,14.30
2022-08-17T22:04:40.922Z,15.30
2022-08-17T22:07:13.498Z,14.50
2022-08-17T22:09:48.204Z,17.70
2022-08-17T22:12:21.830Z,17.20
2022-08-17T22:15:01.463Z,14.20
2022-08-17T22:17:33.548Z,18.00
2022-08-17T22:20:02.031Z,14.10
2022-08-17T22:22:32.516Z,15.70
2022-08-17T22:25:13.967Z,14.60
2022-08-17T22:28:02.001Z,17.40
2022-08-17T22:30:44.503Z,15.90
2022-08-17T22:33:30.867Z,16.30
2022-08-17T22:36:20.321Z,17.20
2022-08-17T22:38:50.770Z,16.90
2022-08-17T22:41:52.842Z,16.70
2022-08-17T22:44:29.943Z,17.30
2022-08-17T22:46:59.546Z,14.00
2022-08-17T22:49:29.958Z,16.60
2022-08-17T22:52:02.803Z,15.50
2022-08-17T22:54:49.548Z,15.10
2022-08-17T22:57:36.279Z,15.80
2022-08-17T23:00:05.403Z,16.00
2022-08-17T23:02:34.762Z,16.30
2022-08-17T23:05:13.231Z,14.50
2022-08-17T23:07:42.489Z,15.50
2022-08-17T23:10:11.923Z,15.10
2022-08-17T23:12:40.170Z,14.70
2022-08-17T23:15:16.286Z,16.20
2022-08-17T23:17:45.038Z,16.10
2022-08-17T23:20:14.482Z,19.00
2022-08-17T23:22:51.939Z,16.10
2022-08-17T23:25:30.209Z,18.40
2022-08-17T23:27:59.001Z,17.40
2022-08-17T23:30:28.826Z,18.20
2022-08-17T23:32:57.120Z,17.70
2022-08-17T23:35:39.588Z,16.60
2022-08-17T23:38:13.211Z,16.90
2022-08-17T23:40:41.365Z,17.90
2022-08-17T23:45:59.967Z,18.50
2022-08-17T23:48:36.224Z,20.60
2022-08-17T23:51:15.939Z,18.90
2022-08-17T23:53:48.009Z,18.20
2022-08-17T23:56:15.671Z,18.00
2022-08-17T23:58:45.084Z,18.50
